x

Buoy F01 - West Penobscot Bay (44033) Wave Buoy

1:04 - Mon 24th Jul 2017 All times are EDT. -4 hours from GMT.

  • Sig Wave height 1.3ft
  • Peak Period 8s
  • Wind
    7mph, 7mph gusts
  • Sea Temp 58°f
  • Ar Temp 58°f
  • Sea Pressure 1015.7mb
  • Buoy F01 - West Penobscot Bay
  • Buoy F01 - West Penobscot Bay

More Historic Weather Station data

Upgrade to MSW Pro to gain access to the past 30 days of data for over 8000 Wavebouys and Weather Stations around the globe.

Join Pro

Comparision Forecast

View Surf forecast
   
Seg 07/24 1:04 1.3ft 8s 7 7 mph 1015.7mb 58f 58f
12:04 1ft 6s 7 7 mph 1016mb 58f 58f
11:04 1ft 8s 4 4 mph 1016.3mb 57f 58f
10:04 1ft 8s 4 7 mph 1016.1mb 56f 58f
9:04 1ft 6s 7 9 mph 1016.2mb 57f 59f
8:04 1ft 8s 4 7 mph 1015.9mb 60f 59f
7:04 1ft 8s 4 4 mph 1015.6mb 60f 58f
6:04 1ft 11s 7 9 mph 1015.4mb 61f 58f
5:04 0.7ft  -  4 4 mph 1015.3mb 62f 60f
4:04 1ft 6s 4 4 mph 1014.3mb 62f 61f
3:04 1ft 6s 4 4 mph 1014mb 61f 62f
2:04 1ft 6s 2 2 mph 1014.4mb 59f 60f
1:04 0.7ft  -  4 4 mph 1014mb 59f 60f
12:04 1ft 6s 4 7 mph 1013.6mb 61f 61f
Dom 07/23 11:04 0.7ft  -  7 7 mph 1013.6mb 61f 61f
10:04 0.7ft  -  4 4 mph 1013.3mb 62f 61f
9:04 1ft 8s 7 7 mph 1013mb 61f 62f
8:04 1ft 8s 7 7 mph 1012.4mb 61f 61f
7:04 1ft 6s 11 13 mph 1012.2mb 62f 62f
6:04 1ft 8s 11 13 mph 1011.7mb 62f 62f
5:04 1ft 5s 9 11 mph 1011.7mb 62f 61f
4:04 1ft 6s 11 13 mph 1011.7mb 63f 61f
3:04 1ft 6s 9 11 mph 1011.4mb 61f 60f
2:04 0.7ft  -  9 13 mph 1011.2mb 61f 60f
1:04 1ft 6s 4 9 mph 1011.1mb 59f 61f
12:04 1ft 6s 2 2 mph 1011.3mb 56f 62f
11:04 1.3ft 8s 9 9 mph 1011.2mb 55f 61f
10:04 0.7ft  -  7 9 mph 1011.3mb 54f 59f
9:04 1ft 6s 9 11 mph 1011.1mb 54f 58f
8:04 1.3ft 8s 9 11 mph 1011.1mb 57f 60f
7:04 0.7ft  -  9 11 mph 1010.8mb 57f 60f
6:04 1ft 3s 7 9 mph 1010.8mb 58f 60f
5:04 1.6ft 3s 11 13 mph 1010.3mb 58f 60f
4:04 1ft 5s 16 18 mph 1009.9mb 59f 61f
3:04 1.3ft 11s 7 9 mph 1009.5mb 60f 62f
2:04 1.3ft 6s 7 9 mph 1009.6mb 59f 63f
1:04 1.3ft 6s 13 16 mph 1009mb 58f 64f
12:04 1ft 6s 11 13 mph 1008.6mb 57f 64f
Sáb 07/22 11:04 1ft 6s 13 13 mph 1008.1mb 57f 65f
10:04 1ft 6s 2 2 mph 1007.6mb 56f 66f
9:04 1ft 6s 4 4 mph 1007.5mb 58f 63f
8:04 1ft 8s 9 9 mph 1007.2mb 57f 65f
7:04 1ft 5s 9 11 mph 1007mb 59f 65f
6:04 1.3ft 5s 13 16 mph 1007mb 60f 65f
5:04 1ft 5s 16 18 mph 1007.1mb 61f 67f
4:04 1.3ft 5s 18 20 mph 1007.5mb 61f 66f
3:04 1.3ft 6s 13 13 mph 1007.6mb 62f 63f
2:04 1.3ft 6s 11 11 mph 1008mb 59f 66f
1:04 1ft 6s 11 11 mph 1008.7mb 59f 62f
12:04 1.3ft 6s 13 16 mph 1008.9mb 58f 62f
11:04 1ft 6s 7 9 mph 1008.7mb 57f 61f
10:04 1ft 6s 7 7 mph 1009.2mb 57f 60f
9:04 1ft 6s 4 4 mph 1009.4mb 56f 61f
8:04 1ft 6s 7 7 mph 1009.1mb 57f 62f
7:04 1ft 6s 7 9 mph 1008.7mb 60f 63f
6:04 1.3ft 6s 2 2 mph 1008.4mb 61f 68f
5:04 1.3ft 6s 2 4 mph 1008.4mb 61f 67f
4:04 1.3ft 6s 7 9 mph 1008.1mb 60f 67f
3:04 1.3ft 5s 7 9 mph 1007.3mb 62f 69f
2:04 1.3ft 6s 7 7 mph 1007.2mb 62f 66f
1:04 1.3ft 6s 7 7 mph 1006.9mb 58f 64f
12:04 1ft 6s 4 7 mph 1006.8mb 60f 64f
Sex 07/21 11:04 1.3ft 6s 7 9 mph 1006.4mb 59f 64f
10:04 1ft 6s 7 9 mph 1006.4mb 59f 63f
9:04 1ft 6s 11 13 mph 1006.2mb 59f 64f
8:04 1ft 6s 11 13 mph 1005.7mb 59f 65f
7:04 1ft 2s 11 13 mph 1006mb 61f 65f
6:04 1ft 5s 13 13 mph 1005.8mb 61f 67f
5:04 1.3ft 6s 13 16 mph 1005.9mb 59f 67f
4:04 1ft 5s 11 11 mph 1006.1mb 60f 65f
3:04 1.3ft 5s 11 16 mph 1006.7mb 61f 65f
2:04 1ft 8s 13 18 mph 1007.2mb 62f 66f
1:04 1.3ft 5s 11 13 mph 1007.5mb 63f 65f
12:04 1ft 8s 9 11 mph 1008mb 59f 64f
11:04 1ft 5s 7 9 mph 1008.7mb 59f 64f
10:04 1ft 6s 4 4 mph 1008.5mb 57f 63f
9:04 1ft 8s 2 2 mph 1008.3mb 59f 64f
8:04 1ft 6s 4 4 mph 1008.5mb 59f 62f
7:04 1ft 6s 2 2 mph 1008.6mb 59f 61f
6:04 1ft 6s 4 4 mph 1008.4mb 60f 60f
5:04 1ft 5s 4 4 mph 1008.2mb 59f 60f
4:04 1ft 5s 2 2 mph 1007.8mb 58f 62f
3:04 1ft 5s 2 4 mph 1007.8mb 62f 62f
2:04 1ft 5s 4 4 mph 1007.8mb 61f 62f
1:04 1ft 5s 2 4 mph 1008.1mb 61f 62f
12:04 1ft 6s 2 2 mph 1008.2mb 61f 67f
Qui 07/20 11:04 1.3ft 6s 2 4 mph 1008.1mb 60f 63f
10:04 1ft 6s 2 4 mph 1008.4mb 60f 63f
9:04 1ft 6s 4 4 mph 1008.5mb 59f 61f
8:04 1ft 8s 7 9 mph 1008.8mb 60f 62f
7:04 1ft 5s 9 9 mph 1008.4mb 61f 62f